Time;durP1;ratioP1;P1;durP2;ratioP2;P2;SDS_P1;SDS_P2;PMS_P1;PMS_P2;Temp;Humidity;BMP_temperature;BMP_pressure;BME280_temperature;BME280_humidity;BME280_pressure;Samples;Min_cycle;Max_cycle;Signal;HPM_P1;HPM_P2
2023/06/23 00:00:15;;;;;;;;;;;26.20;97.60;;;;;;5115841;28;19989;-65
2023/06/23 00:02:41;;;;;;;;;;;26.20;97.50;;;;;;5115331;28;19989;-65
2023/06/23 00:05:11;;;;;;;;;;;26.20;97.20;;;;;;5114993;28;20038;-65
2023/06/23 00:07:36;;;;;;;;;;;26.20;97.10;;;;;;5115355;28;20042;-65
2023/06/23 00:10:05;;;;;;;;;;;26.20;97.80;;;;;;5115263;28;19985;-66
2023/06/23 00:12:35;;;;;;;;;;;26.10;97.50;;;;;;5115092;28;20347;-65
2023/06/23 00:15:05;;;;;;;;;;;26.10;97.40;;;;;;5115003;28;19988;-65
2023/06/23 00:17:31;;;;;;;;;;;26.10;96.90;;;;;;5114835;28;19985;-65
2023/06/23 00:19:57;;;;;;;;;;;26.10;96.90;;;;;;5114886;28;20464;-65
2023/06/23 00:22:22;;;;;;;;;;;26.00;97.10;;;;;;5115298;28;20343;-65
2023/06/23 00:24:48;;;;;;;;;;;26.00;97.30;;;;;;5115153;28;19989;-65
2023/06/23 00:27:13;;;;;;;;;;;26.00;97.80;;;;;;5114725;28;20489;-65
2023/06/23 00:29:39;;;;;;;;;;;25.90;98.10;;;;;;5114873;28;20024;-65
2023/06/23 00:32:05;;;;;;;;;;;25.90;98.50;;;;;;5114638;28;19988;-65
2023/06/23 00:34:30;;;;;;;;;;;25.80;98.10;;;;;;5114645;28;20075;-65
2023/06/23 00:36:56;;;;;;;;;;;25.90;98.20;;;;;;5114776;28;19984;-64
2023/06/23 00:39:21;;;;;;;;;;;25.80;98.20;;;;;;5114666;28;20030;-65
2023/06/23 00:41:48;;;;;;;;;;;25.80;98.10;;;;;;5114460;28;20000;-65
2023/06/23 00:44:14;;;;;;;;;;;25.80;98.20;;;;;;5114522;28;19992;-65
2023/06/23 00:46:43;;;;;;;;;;;25.80;97.90;;;;;;5114100;28;20029;-65
2023/06/23 00:49:15;;;;;;;;;;;25.80;97.70;;;;;;5114518;28;20083;-65
2023/06/23 00:51:40;;;;;;;;;;;25.80;97.40;;;;;;5114460;28;20467;-66
2023/06/23 00:54:07;;;;;;;;;;;25.70;97.70;;;;;;5114731;28;19995;-66
2023/06/23 00:56:33;;;;;;;;;;;25.70;97.90;;;;;;5114889;28;19996;-65
2023/06/23 00:58:58;;;;;;;;;;;25.60;98.00;;;;;;5114475;28;19985;-65
2023/06/23 01:01:24;;;;;;;;;;;25.60;97.90;;;;;;5114220;28;20355;-65
2023/06/23 01:03:49;;;;;;;;;;;25.60;98.00;;;;;;5114315;28;20075;-65
2023/06/23 01:06:18;;;;;;;;;;;25.60;98.20;;;;;;5113502;28;20091;-65
2023/06/23 01:09:12;;;;;;;;;;;25.60;98.30;;;;;;5114236;28;20005;-65
2023/06/23 01:11:43;;;;;;;;;;;25.50;98.40;;;;;;5114195;28;20039;-65
2023/06/23 01:14:09;;;;;;;;;;;25.50;98.30;;;;;;5114130;28;20458;-66
2023/06/23 01:16:44;;;;;;;;;;;25.50;98.40;;;;;;5113925;28;19988;-65
2023/06/23 01:19:29;;;;;;;;;;;25.50;98.80;;;;;;5114289;28;20469;-65
2023/06/23 01:22:00;;;;;;;;;;;25.40;98.90;;;;;;5114073;28;20051;-65
2023/06/23 01:24:33;;;;;;;;;;;25.40;98.80;;;;;;5114222;28;20033;-65
2023/06/23 01:27:08;;;;;;;;;;;25.40;98.70;;;;;;5114017;28;20011;-65
2023/06/23 01:29:34;;;;;;;;;;;25.40;98.00;;;;;;5114072;28;19988;-65
2023/06/23 01:32:02;;;;;;;;;;;25.40;97.70;;;;;;5113857;28;19991;-65
2023/06/23 01:34:36;;;;;;;;;;;25.40;97.60;;;;;;5113923;28;20362;-64
2023/06/23 01:37:05;;;;;;;;;;;25.40;97.40;;;;;;5114215;28;20076;-65
2023/06/23 01:39:33;;;;;;;;;;;25.30;97.30;;;;;;5113959;28;20012;-66
2023/06/23 01:42:02;;;;;;;;;;;25.30;97.40;;;;;;5113785;28;20007;-65
2023/06/23 01:44:29;;;;;;;;;;;25.30;97.40;;;;;;5113815;28;20366;-65
2023/06/23 01:46:56;;;;;;;;;;;25.20;97.30;;;;;;5113663;28;20024;-65
2023/06/23 01:49:27;;;;;;;;;;;25.20;97.30;;;;;;5113763;28;19989;-64
2023/06/23 01:51:53;;;;;;;;;;;25.20;96.90;;;;;;5113829;28;20450;-65
2023/06/23 01:54:19;;;;;;;;;;;25.20;97.10;;;;;;5113883;28;19988;-65
2023/06/23 01:56:46;;;;;;;;;;;25.10;98.10;;;;;;5113708;28;19992;-65
2023/06/23 01:59:13;;;;;;;;;;;25.00;97.90;;;;;;5113675;28;19985;-65
2023/06/23 02:01:39;;;;;;;;;;;25.00;97.30;;;;;;5113745;28;19992;-65
2023/06/23 02:04:06;;;;;;;;;;;25.00;97.40;;;;;;5113634;28;19988;-66
2023/06/23 02:06:34;;;;;;;;;;;25.00;97.30;;;;;;5113730;28;20455;-65
2023/06/23 02:09:00;;;;;;;;;;;24.90;97.10;;;;;;5113686;28;20367;-65
2023/06/23 02:11:26;;;;;;;;;;;24.90;97.10;;;;;;5113603;28;19989;-65
2023/06/23 02:13:53;;;;;;;;;;;24.90;97.30;;;;;;5113774;28;20431;-65
2023/06/23 02:16:19;;;;;;;;;;;24.90;97.50;;;;;;5113635;28;20091;-64
2023/06/23 02:18:45;;;;;;;;;;;24.80;97.40;;;;;;5117393;28;20068;-65
2023/06/23 02:21:12;;;;;;;;;;;24.80;97.40;;;;;;5117324;28;19991;-65
2023/06/23 02:23:38;;;;;;;;;;;24.80;97.30;;;;;;5117279;28;20030;-65
2023/06/23 02:26:04;;;;;;;;;;;24.80;97.50;;;;;;5117159;28;20079;-65
2023/06/23 02:28:29;;;;;;;;;;;24.70;97.70;;;;;;5116975;28;20113;-66
2023/06/23 02:30:55;;;;;;;;;;;24.70;97.90;;;;;;5117222;28;20139;-65
2023/06/23 02:33:21;;;;;;;;;;;24.70;97.80;;;;;;5117040;28;20443;-65
2023/06/23 02:35:48;;;;;;;;;;;24.60;97.90;;;;;;5117293;28;19995;-65
2023/06/23 02:38:15;;;;;;;;;;;24.70;98.00;;;;;;5117111;28;20453;-65
2023/06/23 02:40:42;;;;;;;;;;;24.70;98.00;;;;;;5116944;28;20033;-65
2023/06/23 02:43:16;;;;;;;;;;;24.60;98.30;;;;;;5116501;28;20005;-66
2023/06/23 02:45:43;;;;;;;;;;;24.60;98.50;;;;;;5116753;28;20027;-66
2023/06/23 02:48:12;;;;;;;;;;;24.60;98.90;;;;;;5116722;28;20054;-65
2023/06/23 02:50:38;;;;;;;;;;;24.50;99.10;;;;;;5116768;28;20421;-65
2023/06/23 02:53:07;;;;;;;;;;;24.40;99.30;;;;;;5116739;28;20077;-64
2023/06/23 02:55:37;;;;;;;;;;;24.40;99.50;;;;;;5116523;28;19995;-66
2023/06/23 02:58:05;;;;;;;;;;;24.40;99.90;;;;;;5116466;28;19991;-66
2023/06/23 03:00:32;;;;;;;;;;;24.30;99.90;;;;;;5116713;28;19985;-65
2023/06/23 03:02:59;;;;;;;;;;;24.30;99.80;;;;;;5116390;28;19988;-65
2023/06/23 03:05:26;;;;;;;;;;;24.20;99.80;;;;;;5116498;28;19984;-65
2023/06/23 03:07:52;;;;;;;;;;;24.20;99.70;;;;;;5116365;28;20008;-65
2023/06/23 03:10:18;;;;;;;;;;;24.20;99.20;;;;;;5116268;28;19984;-65
2023/06/23 03:12:43;;;;;;;;;;;24.30;98.90;;;;;;5116169;28;19984;-65
2023/06/23 03:15:09;;;;;;;;;;;24.20;98.80;;;;;;5116328;28;19991;-66
2023/06/23 03:17:37;;;;;;;;;;;24.20;99.00;;;;;;5116237;28;19989;-65
2023/06/23 03:20:09;;;;;;;;;;;24.20;99.00;;;;;;5116221;28;19991;-65
2023/06/23 03:22:41;;;;;;;;;;;24.20;99.00;;;;;;5116165;28;20474;-65
2023/06/23 03:25:11;;;;;;;;;;;24.20;99.10;;;;;;5116047;28;20080;-65
2023/06/23 03:27:37;;;;;;;;;;;24.20;99.40;;;;;;5115908;28;20008;-65
2023/06/23 03:30:08;;;;;;;;;;;24.20;99.50;;;;;;5115377;28;19991;-64
2023/06/23 03:32:37;;;;;;;;;;;24.20;99.50;;;;;;5115893;28;19991;-66
2023/06/23 03:35:13;;;;;;;;;;;24.30;99.20;;;;;;5115963;28;20419;-66
2023/06/23 03:37:42;;;;;;;;;;;24.30;98.90;;;;;;5115762;28;19988;-65
2023/06/23 03:40:10;;;;;;;;;;;24.30;98.90;;;;;;5115906;28;20031;-64
2023/06/23 03:42:36;;;;;;;;;;;24.30;98.90;;;;;;5115473;28;20007;-66
2023/06/23 03:45:04;;;;;;;;;;;24.30;98.30;;;;;;5115444;28;20027;-65
2023/06/23 03:47:31;;;;;;;;;;;24.40;98.00;;;;;;5116097;28;20012;-65
2023/06/23 03:50:02;;;;;;;;;;;24.40;97.70;;;;;;5115690;28;20416;-65
2023/06/23 03:52:28;;;;;;;;;;;24.30;97.60;;;;;;5115476;28;20023;-65
2023/06/23 03:54:54;;;;;;;;;;;24.30;97.70;;;;;;5115335;28;20477;-65
2023/06/23 03:57:22;;;;;;;;;;;24.30;97.70;;;;;;5115500;28;19985;-65
2023/06/23 03:59:49;;;;;;;;;;;24.30;97.80;;;;;;5115303;28;20370;-66
2023/06/23 04:02:17;;;;;;;;;;;24.20;97.80;;;;;;5115172;28;19988;-66
2023/06/23 04:04:44;;;;;;;;;;;24.30;97.80;;;;;;5115324;28;20363;-65
2023/06/23 04:07:10;;;;;;;;;;;24.30;97.70;;;;;;5115132;28;20376;-64
2023/06/23 04:09:37;;;;;;;;;;;24.30;97.90;;;;;;5115024;28;20039;-65
2023/06/23 04:12:03;;;;;;;;;;;24.40;97.90;;;;;;5115167;28;20068;-65
2023/06/23 04:14:30;;;;;;;;;;;24.40;97.80;;;;;;5115071;28;20115;-66
2023/06/23 04:16:56;;;;;;;;;;;24.50;98.10;;;;;;5115078;28;19996;-66
2023/06/23 04:19:27;;;;;;;;;;;24.50;97.90;;;;;;5115279;28;19988;-65
2023/06/23 04:21:53;;;;;;;;;;;24.50;98.10;;;;;;5114910;28;19985;-65
2023/06/23 04:24:19;;;;;;;;;;;24.60;97.90;;;;;;5114884;28;20010;-65
2023/06/23 04:26:47;;;;;;;;;;;24.70;97.60;;;;;;5114902;28;19992;-65
2023/06/23 04:29:14;;;;;;;;;;;24.70;97.50;;;;;;5114780;28;20083;-65
2023/06/23 04:31:40;;;;;;;;;;;24.80;97.30;;;;;;5114928;28;20027;-66
2023/06/23 04:34:06;;;;;;;;;;;24.80;97.20;;;;;;5114783;28;19984;-66
2023/06/23 04:36:35;;;;;;;;;;;24.70;97.20;;;;;;5114896;28;20362;-65
2023/06/23 04:39:07;;;;;;;;;;;24.70;96.90;;;;;;5114503;28;19984;-64
2023/06/23 04:41:34;;;;;;;;;;;24.80;96.90;;;;;;5113622;28;19992;-65
2023/06/23 04:44:01;;;;;;;;;;;24.80;96.90;;;;;;5114556;28;19989;-66
2023/06/23 04:46:28;;;;;;;;;;;24.90;97.10;;;;;;5114474;28;20039;-66
2023/06/23 04:48:56;;;;;;;;;;;24.90;97.00;;;;;;5114481;28;20101;-66
2023/06/23 04:51:25;;;;;;;;;;;24.90;97.30;;;;;;5114419;28;19989;-65
2023/06/23 04:53:53;;;;;;;;;;;24.90;97.50;;;;;;5114290;28;19985;-65
2023/06/23 04:56:21;;;;;;;;;;;25.00;97.40;;;;;;5114499;28;19989;-65
2023/06/23 04:58:49;;;;;;;;;;;25.10;97.50;;;;;;5114007;28;20450;-66
2023/06/23 05:01:16;;;;;;;;;;;25.20;98.10;;;;;;5114480;28;20442;-65
2023/06/23 05:03:42;;;;;;;;;;;25.20;98.40;;;;;;5114191;28;19984;-65
2023/06/23 05:06:09;;;;;;;;;;;25.20;98.40;;;;;;5114025;28;19984;-65
2023/06/23 05:08:35;;;;;;;;;;;25.30;98.40;;;;;;5113401;28;20009;-65
2023/06/23 05:11:05;;;;;;;;;;;25.40;98.60;;;;;;5113944;28;20010;-65
2023/06/23 05:13:32;;;;;;;;;;;25.40;98.30;;;;;;5113075;28;20400;-65
2023/06/23 05:15:58;;;;;;;;;;;25.40;98.50;;;;;;5095654;28;20034;-65
2023/06/23 05:18:24;;;;;;;;;;;25.40;98.60;;;;;;5113482;28;20028;-66
2023/06/23 05:20:51;;;;;;;;;;;25.50;98.60;;;;;;5112796;28;20014;-65
2023/06/23 05:23:17;;;;;;;;;;;25.50;98.30;;;;;;5113646;28;20022;-64
2023/06/23 05:25:44;;;;;;;;;;;25.70;98.00;;;;;;5113930;28;20010;-65
2023/06/23 05:28:11;;;;;;;;;;;25.80;96.90;;;;;;5113757;28;20062;-65
2023/06/23 05:30:37;;;;;;;;;;;25.90;96.70;;;;;;5113910;28;19984;-64
2023/06/23 05:33:07;;;;;;;;;;;26.10;96.80;;;;;;5113850;28;19984;-64
2023/06/23 05:35:33;;;;;;;;;;;26.20;97.00;;;;;;5113638;28;20073;-65
2023/06/23 05:38:00;;;;;;;;;;;26.20;97.00;;;;;;5113699;28;19992;-65
2023/06/23 05:40:25;;;;;;;;;;;26.30;96.80;;;;;;5113843;28;19988;-65
2023/06/23 05:42:51;;;;;;;;;;;26.40;97.20;;;;;;5113016;28;20570;-65
2023/06/23 05:45:17;;;;;;;;;;;26.40;96.90;;;;;;5111744;28;20028;-66
2023/06/23 05:47:51;;;;;;;;;;;26.50;96.10;;;;;;5111229;28;20103;-65
2023/06/23 05:50:37;;;;;;;;;;;26.60;95.50;;;;;;5111926;28;19984;-64
2023/06/23 05:53:05;;;;;;;;;;;26.70;94.70;;;;;;5115339;28;19989;-65
2023/06/23 05:55:32;;;;;;;;;;;26.90;94.10;;;;;;5116575;28;20034;-66
2023/06/23 05:58:01;;;;;;;;;;;27.10;93.60;;;;;;5116788;28;20332;-65
2023/06/23 06:00:29;;;;;;;;;;;27.20;94.10;;;;;;5116514;28;19985;-65
2023/06/23 06:02:55;;;;;;;;;;;27.30;93.00;;;;;;5117294;28;19992;-65
2023/06/23 06:05:22;;;;;;;;;;;27.40;92.70;;;;;;5112190;28;19993;-65
2023/06/23 06:07:49;;;;;;;;;;;27.40;92.60;;;;;;5112363;28;20034;-65
2023/06/23 06:10:15;;;;;;;;;;;27.50;92.60;;;;;;5116730;28;19991;-65
2023/06/23 06:12:43;;;;;;;;;;;27.60;92.10;;;;;;5117089;28;20029;-64
2023/06/23 06:15:09;;;;;;;;;;;27.70;92.70;;;;;;5115793;28;20057;-64
2023/06/23 06:17:38;;;;;;;;;;;27.90;92.80;;;;;;5115994;28;19988;-65
2023/06/23 06:20:04;;;;;;;;;;;28.00;92.20;;;;;;5115653;28;20006;-65
2023/06/23 06:22:31;;;;;;;;;;;28.20;91.50;;;;;;5116289;28;20001;-65
2023/06/23 06:24:58;;;;;;;;;;;28.40;91.70;;;;;;5116602;28;19992;-65
2023/06/23 06:27:24;;;;;;;;;;;28.50;90.80;;;;;;5116922;28;20103;-65
2023/06/23 06:29:50;;;;;;;;;;;28.50;91.20;;;;;;5116209;28;20039;-64
2023/06/23 06:32:16;;;;;;;;;;;28.70;91.30;;;;;;5115072;28;19995;-64
2023/06/23 06:34:43;;;;;;;;;;;28.80;90.70;;;;;;5114549;28;19992;-65
2023/06/23 06:37:09;;;;;;;;;;;29.00;88.40;;;;;;5115340;28;19989;-66
2023/06/23 06:39:36;;;;;;;;;;;29.10;87.20;;;;;;5115320;28;19988;-67
2023/06/23 06:42:01;;;;;;;;;;;29.20;88.00;;;;;;5115516;28;20049;-65
2023/06/23 06:44:27;;;;;;;;;;;29.30;87.50;;;;;;5115912;28;19985;-65
2023/06/23 06:46:53;;;;;;;;;;;29.40;87.80;;;;;;5116660;28;20047;-65
2023/06/23 06:49:20;;;;;;;;;;;29.50;86.10;;;;;;5115633;28;20447;-64
2023/06/23 06:51:47;;;;;;;;;;;29.50;86.20;;;;;;5115673;28;20087;-64
2023/06/23 06:54:15;;;;;;;;;;;29.40;85.40;;;;;;5114776;28;20012;-65
2023/06/23 06:56:40;;;;;;;;;;;29.50;85.80;;;;;;5114373;28;19984;-65
2023/06/23 06:59:06;;;;;;;;;;;29.80;85.40;;;;;;5112347;28;20038;-66
2023/06/23 07:01:32;;;;;;;;;;;29.90;87.00;;;;;;5114451;28;20442;-65
2023/06/23 07:03:58;;;;;;;;;;;30.10;86.10;;;;;;5114302;28;20016;-65
2023/06/23 07:06:25;;;;;;;;;;;30.30;83.20;;;;;;5115483;28;20028;-64
2023/06/23 07:08:51;;;;;;;;;;;30.30;85.60;;;;;;5115155;28;20012;-65
2023/06/23 07:11:17;;;;;;;;;;;30.40;84.60;;;;;;5115934;28;19989;-66
2023/06/23 07:13:42;;;;;;;;;;;30.60;84.00;;;;;;5095993;28;19993;-65
2023/06/23 07:16:08;;;;;;;;;;;30.70;83.00;;;;;;5115101;28;19988;-65
2023/06/23 07:18:33;;;;;;;;;;;30.80;86.60;;;;;;5115639;28;19985;-66
2023/06/23 07:21:00;;;;;;;;;;;30.90;84.00;;;;;;5115213;28;19985;-66
2023/06/23 07:23:26;;;;;;;;;;;31.00;83.50;;;;;;5115446;28;19988;-66
2023/06/23 07:25:51;;;;;;;;;;;31.20;81.90;;;;;;5115450;28;19996;-66
2023/06/23 07:28:17;;;;;;;;;;;31.30;81.20;;;;;;5116011;28;20049;-65
2023/06/23 07:30:43;;;;;;;;;;;31.50;81.70;;;;;;5115836;28;20367;-66
2023/06/23 07:33:08;;;;;;;;;;;31.60;82.20;;;;;;5116001;28;20017;-64
2023/06/23 07:35:35;;;;;;;;;;;31.70;82.10;;;;;;5115837;28;20072;-63
2023/06/23 07:38:01;;;;;;;;;;;31.90;79.80;;;;;;5115731;28;19984;-63
2023/06/23 07:40:26;;;;;;;;;;;32.00;78.20;;;;;;5115651;28;19992;-63
2023/06/23 07:42:52;;;;;;;;;;;32.10;79.70;;;;;;5113440;28;20000;-64
2023/06/23 07:45:18;;;;;;;;;;;32.20;77.40;;;;;;5094617;28;20016;-64
2023/06/23 07:47:43;;;;;;;;;;;32.40;75.60;;;;;;5112401;28;20489;-67
2023/06/23 07:50:09;;;;;;;;;;;32.90;75.30;;;;;;5109553;28;19991;-64
2023/06/23 07:52:35;;;;;;;;;;;34.20;72.40;;;;;;5113076;28;19991;-64
2023/06/23 07:55:00;;;;;;;;;;;35.70;70.20;;;;;;5113313;28;20442;-63
2023/06/23 07:57:26;;;;;;;;;;;36.90;65.40;;;;;;5115043;28;20340;-64
2023/06/23 07:59:54;;;;;;;;;;;37.90;62.40;;;;;;5113259;28;20075;-64
2023/06/23 08:02:20;;;;;;;;;;;38.70;59.70;;;;;;5113080;28;19985;-64
2023/06/23 08:04:45;;;;;;;;;;;39.30;59.70;;;;;;5113013;28;20122;-65
2023/06/23 08:07:14;;;;;;;;;;;40.00;57.00;;;;;;5112778;28;20008;-63
2023/06/23 08:09:40;;;;;;;;;;;40.60;56.10;;;;;;5111667;28;19985;-64
2023/06/23 08:12:05;;;;;;;;;;;40.90;55.50;;;;;;5111873;28;20358;-63
2023/06/23 08:14:31;;;;;;;;;;;41.30;53.90;;;;;;5111612;28;19985;-63
2023/06/23 08:16:57;;;;;;;;;;;41.50;53.30;;;;;;5112176;28;19985;-64
2023/06/23 08:19:24;;;;;;;;;;;41.70;52.30;;;;;;5113432;28;20423;-65
2023/06/23 08:21:51;;;;;;;;;;;41.70;51.40;;;;;;5113645;28;20041;-64
2023/06/23 08:24:16;;;;;;;;;;;41.80;51.20;;;;;;5113241;28;19984;-63
2023/06/23 08:26:42;;;;;;;;;;;41.90;49.80;;;;;;5114030;28;20023;-63
2023/06/23 08:29:09;;;;;;;;;;;42.00;50.70;;;;;;5114736;28;20015;-63
2023/06/23 08:31:34;;;;;;;;;;;42.30;51.20;;;;;;5114731;28;20474;-65
2023/06/23 08:34:00;;;;;;;;;;;42.50;48.70;;;;;;5096367;28;19988;-63
2023/06/23 08:36:25;;;;;;;;;;;42.50;47.80;;;;;;5114651;28;19989;-63
2023/06/23 08:38:51;;;;;;;;;;;43.00;47.30;;;;;;5114758;28;20007;-65
2023/06/23 08:41:20;;;;;;;;;;;43.10;46.20;;;;;;5096056;28;19989;-64
2023/06/23 08:43:47;;;;;;;;;;;43.20;46.20;;;;;;5114421;28;19988;-65
2023/06/23 08:46:14;;;;;;;;;;;43.50;47.30;;;;;;5114080;28;20028;-65
2023/06/23 08:48:42;;;;;;;;;;;43.30;45.30;;;;;;5095612;28;20103;-67
2023/06/23 08:51:08;;;;;;;;;;;42.90;45.70;;;;;;5112925;28;19988;-64
2023/06/23 08:53:34;;;;;;;;;;;42.50;45.90;;;;;;5112299;28;19988;-65
2023/06/23 08:56:00;;;;;;;;;;;42.60;45.90;;;;;;5112144;28;20021;-65
2023/06/23 08:58:25;;;;;;;;;;;42.90;47.50;;;;;;5113259;28;20343;-64
2023/06/23 09:00:52;;;;;;;;;;;43.00;44.20;;;;;;5113591;28;19985;-64
2023/06/23 09:03:18;;;;;;;;;;;43.20;45.20;;;;;;5113536;28;20083;-66
2023/06/23 09:05:43;;;;;;;;;;;43.20;42.90;;;;;;5113682;28;20508;-65
2023/06/23 09:08:10;;;;;;;;;;;43.20;44.20;;;;;;5111950;28;20012;-65
2023/06/23 09:10:35;;;;;;;;;;;43.30;43.90;;;;;;5113187;28;19999;-64
2023/06/23 09:13:07;;;;;;;;;;;43.40;46.10;;;;;;5113338;28;19984;-65
2023/06/23 09:15:33;;;;;;;;;;;43.20;43.80;;;;;;5113235;28;20071;-65
2023/06/23 09:18:00;;;;;;;;;;;43.30;43.60;;;;;;5111814;28;19992;-65
2023/06/23 09:20:26;;;;;;;;;;;43.60;42.70;;;;;;5111105;28;19989;-64
2023/06/23 09:22:53;;;;;;;;;;;43.70;42.90;;;;;;5108010;28;20436;-64
2023/06/23 09:25:41;;;;;;;;;;;43.60;41.20;;;;;;5111224;28;19996;-64
2023/06/23 09:28:06;;;;;;;;;;;43.60;41.70;;;;;;5114111;28;20087;-64
2023/06/23 09:30:33;;;;;;;;;;;43.90;41.40;;;;;;5116642;28;20087;-64
2023/06/23 09:32:59;;;;;;;;;;;43.60;41.10;;;;;;5116675;28;19984;-64
2023/06/23 09:35:24;;;;;;;;;;;43.70;42.90;;;;;;5116155;28;20013;-63
2023/06/23 09:37:50;;;;;;;;;;;43.70;41.40;;;;;;5116154;28;20070;-63
2023/06/23 09:40:23;;;;;;;;;;;43.80;43.50;;;;;;5115625;28;19989;-64
2023/06/23 09:42:49;;;;;;;;;;;44.00;41.40;;;;;;5115220;28;20004;-64
2023/06/23 09:45:17;;;;;;;;;;;44.00;40.90;;;;;;5114955;28;20023;-64
2023/06/23 09:47:43;;;;;;;;;;;43.60;42.00;;;;;;5115954;28;20009;-64
2023/06/23 09:50:16;;;;;;;;;;;43.60;43.60;;;;;;5116505;28;20340;-64
2023/06/23 09:52:41;;;;;;;;;;;43.60;40.00;;;;;;5117343;28;19988;-64
2023/06/23 09:55:07;;;;;;;;;;;43.80;40.60;;;;;;5115792;28;19992;-64
2023/06/23 09:57:32;;;;;;;;;;;44.10;39.10;;;;;;5116251;28;19986;-63
2023/06/23 10:00:00;;;;;;;;;;;44.30;38.70;;;;;;5116760;28;20490;-64
2023/06/23 10:02:26;;;;;;;;;;;43.90;39.50;;;;;;5116690;28;19992;-64
2023/06/23 10:04:58;;;;;;;;;;;43.70;39.50;;;;;;5114963;28;19996;-64
2023/06/23 10:07:25;;;;;;;;;;;43.60;38.30;;;;;;5113799;28;20059;-64
2023/06/23 10:09:51;;;;;;;;;;;43.50;36.30;;;;;;5114178;28;19985;-64
2023/06/23 10:12:21;;;;;;;;;;;43.30;36.60;;;;;;5115558;28;20083;-64
2023/06/23 10:14:48;;;;;;;;;;;43.40;38.50;;;;;;5115034;28;19985;-63
2023/06/23 10:17:14;;;;;;;;;;;43.30;39.30;;;;;;5115934;28;19992;-63
2023/06/23 10:19:40;;;;;;;;;;;43.10;38.80;;;;;;5116874;28;19985;-64
2023/06/23 10:22:05;;;;;;;;;;;43.40;37.30;;;;;;5117289;28;19988;-64
2023/06/23 10:24:31;;;;;;;;;;;43.60;38.30;;;;;;5116360;28;19988;-64
2023/06/23 10:26:58;;;;;;;;;;;43.90;36.30;;;;;;5116588;28;19985;-64
2023/06/23 10:29:24;;;;;;;;;;;44.00;34.10;;;;;;5117117;28;20789;-64
2023/06/23 10:31:51;;;;;;;;;;;43.60;37.90;;;;;;5115684;28;19984;-63
2023/06/23 10:34:17;;;;;;;;;;;43.30;38.30;;;;;;5116995;28;20075;-64
2023/06/23 10:36:47;;;;;;;;;;;43.60;37.60;;;;;;5117303;28;20011;-64
2023/06/23 10:39:14;;;;;;;;;;;43.70;39.60;;;;;;5116739;28;19985;-65
2023/06/23 10:41:44;;;;;;;;;;;43.60;37.70;;;;;;5116721;28;20005;-64
2023/06/23 10:44:10;;;;;;;;;;;43.20;39.40;;;;;;5117037;28;20028;-65
2023/06/23 10:46:36;;;;;;;;;;;43.40;39.90;;;;;;5114784;28;20071;-65
2023/06/23 10:49:04;;;;;;;;;;;43.50;40.10;;;;;;5115760;28;20008;-64
2023/06/23 10:51:31;;;;;;;;;;;43.60;38.50;;;;;;5114578;28;19985;-64
2023/06/23 10:53:58;;;;;;;;;;;43.90;38.80;;;;;;5116594;28;20359;-64
2023/06/23 10:56:29;;;;;;;;;;;44.00;37.60;;;;;;5115449;28;20032;-64
2023/06/23 10:58:55;;;;;;;;;;;44.10;36.60;;;;;;5116448;28;20370;-64
2023/06/23 11:01:20;;;;;;;;;;;43.90;37.70;;;;;;5116455;28;19992;-65
2023/06/23 11:03:49;;;;;;;;;;;43.70;36.50;;;;;;5116498;28;20096;-64
2023/06/23 11:06:24;;;;;;;;;;;43.80;36.90;;;;;;5116716;28;20024;-64
2023/06/23 11:08:50;;;;;;;;;;;43.70;35.40;;;;;;5115269;28;20054;-64
2023/06/23 11:11:17;;;;;;;;;;;43.30;36.20;;;;;;5116088;28;20463;-64
2023/06/23 11:13:50;;;;;;;;;;;43.30;38.30;;;;;;5116396;28;19984;-64
2023/06/23 11:16:26;;;;;;;;;;;43.30;35.20;;;;;;5116393;28;19989;-64
2023/06/23 11:18:58;;;;;;;;;;;43.40;35.00;;;;;;5116384;28;19989;-64
2023/06/23 11:21:27;;;;;;;;;;;43.60;35.30;;;;;;5116268;28;19992;-64
2023/06/23 11:24:09;;;;;;;;;;;43.90;35.20;;;;;;5116353;28;20045;-64
2023/06/23 11:26:34;;;;;;;;;;;43.80;36.00;;;;;;5115521;28;19989;-64
2023/06/23 11:29:00;;;;;;;;;;;44.00;35.40;;;;;;5116213;28;20013;-64
2023/06/23 11:31:28;;;;;;;;;;;43.90;36.30;;;;;;5115863;28;20354;-64
2023/06/23 11:33:54;;;;;;;;;;;43.90;36.00;;;;;;5116096;28;19985;-63
2023/06/23 11:36:20;;;;;;;;;;;44.00;35.10;;;;;;5115916;28;19984;-64
2023/06/23 11:38:46;;;;;;;;;;;44.20;34.90;;;;;;5115831;28;19999;-64
2023/06/23 11:41:13;;;;;;;;;;;44.20;35.40;;;;;;5115203;28;20354;-64
2023/06/23 11:43:38;;;;;;;;;;;43.80;35.30;;;;;;5115925;28;20063;-64
2023/06/23 11:46:06;;;;;;;;;;;43.70;36.60;;;;;;5115491;28;20050;-64
2023/06/23 11:48:32;;;;;;;;;;;43.80;35.80;;;;;;5115636;28;20008;-64
2023/06/23 11:50:58;;;;;;;;;;;43.80;35.50;;;;;;5115055;28;20080;-64
2023/06/23 11:53:24;;;;;;;;;;;43.70;35.20;;;;;;5115364;28;20016;-64
2023/06/23 11:55:50;;;;;;;;;;;43.90;37.00;;;;;;5115770;28;20478;-64
2023/06/23 11:58:16;;;;;;;;;;;43.90;36.80;;;;;;5115406;28;20083;-64
2023/06/23 12:00:42;;;;;;;;;;;44.10;35.40;;;;;;5116011;28;19985;-64
2023/06/23 12:03:11;;;;;;;;;;;44.00;34.20;;;;;;5115585;28;20411;-64
2023/06/23 12:05:36;;;;;;;;;;;43.90;36.80;;;;;;5115381;28;20049;-64
2023/06/23 12:08:04;;;;;;;;;;;43.90;35.70;;;;;;5115012;28;20098;-64
2023/06/23 12:10:34;;;;;;;;;;;43.70;35.50;;;;;;5115388;28;19985;-64
2023/06/23 12:12:59;;;;;;;;;;;43.60;35.10;;;;;;5115481;28;20101;-64
2023/06/23 12:15:26;;;;;;;;;;;43.40;35.80;;;;;;5114724;28;20747;-64
2023/06/23 12:17:55;;;;;;;;;;;43.50;38.10;;;;;;5114856;28;19988;-64
2023/06/23 12:20:21;;;;;;;;;;;43.40;35.90;;;;;;5115149;28;19992;-64
2023/06/23 12:22:48;;;;;;;;;;;43.10;37.40;;;;;;5114729;28;20075;-64
2023/06/23 12:25:13;;;;;;;;;;;42.90;35.30;;;;;;5114926;28;19995;-64
2023/06/23 12:27:39;;;;;;;;;;;42.70;36.10;;;;;;5114801;28;20107;-64
2023/06/23 12:30:14;;;;;;;;;;;43.00;35.50;;;;;;5115154;28;20034;-64
2023/06/23 12:32:40;;;;;;;;;;;43.00;35.60;;;;;;5114846;28;20007;-64
2023/06/23 12:35:05;;;;;;;;;;;43.20;35.30;;;;;;5115047;28;20450;-64
2023/06/23 12:37:42;;;;;;;;;;;43.00;35.20;;;;;;5114507;28;20456;-64
2023/06/23 12:40:10;;;;;;;;;;;42.70;37.40;;;;;;5114209;28;19984;-64
2023/06/23 12:42:36;;;;;;;;;;;42.50;37.70;;;;;;5114487;28;20054;-64
2023/06/23 12:45:02;;;;;;;;;;;42.60;37.90;;;;;;5114610;28;19992;-64
2023/06/23 12:47:27;;;;;;;;;;;42.60;39.00;;;;;;5114650;28;20020;-64
2023/06/23 12:50:01;;;;;;;;;;;42.70;36.70;;;;;;5096329;28;20445;-64
2023/06/23 12:52:27;;;;;;;;;;;42.70;39.80;;;;;;5113508;28;19989;-64
2023/06/23 12:54:54;;;;;;;;;;;42.90;37.20;;;;;;5114384;28;19996;-64
2023/06/23 12:57:20;;;;;;;;;;;42.60;38.30;;;;;;5114449;28;20079;-64
2023/06/23 12:59:45;;;;;;;;;;;42.40;38.80;;;;;;5114575;28;20415;-64
2023/06/23 13:02:18;;;;;;;;;;;42.20;38.70;;;;;;5113350;28;20438;-64
2023/06/23 13:04:44;;;;;;;;;;;42.20;38.60;;;;;;5114385;28;19984;-64
2023/06/23 13:07:09;;;;;;;;;;;42.10;40.50;;;;;;5113791;28;19991;-64
2023/06/23 13:09:35;;;;;;;;;;;42.20;40.90;;;;;;5113811;28;20392;-64
2023/06/23 13:12:01;;;;;;;;;;;42.30;38.50;;;;;;5114255;28;19985;-64
2023/06/23 13:14:26;;;;;;;;;;;42.20;37.10;;;;;;5114175;28;20029;-64
2023/06/23 13:16:52;;;;;;;;;;;42.00;37.60;;;;;;5114159;28;19991;-64
2023/06/23 13:19:17;;;;;;;;;;;41.80;37.40;;;;;;5114406;28;19989;-64
2023/06/23 13:21:45;;;;;;;;;;;41.70;40.40;;;;;;5113735;28;19992;-64
2023/06/23 13:24:11;;;;;;;;;;;41.80;37.70;;;;;;5113301;28;19985;-64
2023/06/23 13:26:37;;;;;;;;;;;42.00;39.40;;;;;;5113787;28;20049;-64
2023/06/23 13:29:02;;;;;;;;;;;42.20;40.40;;;;;;5096043;28;20427;-64
2023/06/23 13:31:28;;;;;;;;;;;42.40;40.50;;;;;;5113935;28;20408;-64
2023/06/23 13:33:54;;;;;;;;;;;42.50;35.30;;;;;;5096326;28;19989;-64
2023/06/23 13:36:19;;;;;;;;;;;42.40;36.90;;;;;;5113748;28;20011;-65
2023/06/23 13:38:46;;;;;;;;;;;42.50;38.20;;;;;;5114129;28;20024;-64
2023/06/23 13:41:11;;;;;;;;;;;42.20;37.50;;;;;;5114084;28;19984;-63
2023/06/23 13:43:37;;;;;;;;;;;42.20;36.70;;;;;;5113870;28;20466;-64
2023/06/23 13:46:03;;;;;;;;;;;42.00;36.00;;;;;;5113726;28;20401;-64
2023/06/23 13:48:28;;;;;;;;;;;41.80;37.20;;;;;;5113958;28;20008;-64
2023/06/23 13:50:54;;;;;;;;;;;41.80;37.20;;;;;;5113710;28;20439;-64
2023/06/23 13:53:19;;;;;;;;;;;41.80;39.10;;;;;;5113956;28;19988;-64
2023/06/23 13:55:45;;;;;;;;;;;42.00;37.50;;;;;;5113874;28;19992;-64
2023/06/23 13:58:10;;;;;;;;;;;41.80;36.80;;;;;;5113892;28;20352;-64
2023/06/23 14:00:36;;;;;;;;;;;41.70;37.40;;;;;;5113766;28;19985;-64
2023/06/23 14:03:02;;;;;;;;;;;41.50;37.50;;;;;;5113762;28;19985;-64
2023/06/23 14:05:27;;;;;;;;;;;41.50;37.10;;;;;;5113495;28;20039;-64
2023/06/23 14:07:53;;;;;;;;;;;41.70;38.10;;;;;;5113735;28;20133;-64
2023/06/23 14:10:18;;;;;;;;;;;41.50;37.70;;;;;;5113627;28;19985;-64
2023/06/23 14:12:44;;;;;;;;;;;41.30;38.10;;;;;;5114204;28;19985;-64
2023/06/23 14:15:09;;;;;;;;;;;41.20;39.70;;;;;;5117457;28;20358;-64